< Typhoon 197429 1974 Season Typhoon 197431 >
Typhoon 197430 (IRMA)
General InformationTrack Information on Google Maps || Disaster Info.ResourceGoogle EarthGE AnimationAtom FeedGeoJSON
Detalied Best Track (Time Zone = UTC)
Year Month Day Hour Lat. Long. Pressure (hPa) Wind (kt) Class Image Chart
1974 11 21 06 9.4 141.7 1000 0 2 -- Chart
1974 11 21 12 9.4 141.5 1000 0 2 -- Chart
1974 11 21 18 9.6 141.0 1000 0 2 -- Chart
1974 11 22 00 10.2 140.5 998 0 2 -- Chart
1974 11 22 06 10.6 140.2 994 0 2 -- Chart
1974 11 22 12 11.3 140.4 994 0 2 -- Chart
1974 11 22 18 11.7 139.9 992 0 2 -- Chart
1974 11 23 00 12.1 139.4 990 0 9 -- Chart
1974 11 23 06 12.5 138.8 980 0 9 -- Chart
1974 11 23 12 13.0 138.0 980 0 9 -- Chart
1974 11 23 18 13.4 137.0 975 0 9 -- Chart
1974 11 24 00 13.7 136.3 975 0 9 -- Chart
1974 11 24 06 14.0 135.4 970 0 9 -- Chart
1974 11 24 12 14.2 134.8 965 0 9 -- Chart
1974 11 24 18 14.5 134.2 960 0 9 -- Chart
1974 11 25 00 14.8 133.6 955 0 9 -- Chart
1974 11 25 06 15.2 133.0 950 0 9 -- Chart
1974 11 25 12 15.5 132.4 950 0 9 -- Chart
1974 11 25 18 15.7 131.5 945 0 9 -- Chart
1974 11 26 00 15.6 130.6 940 0 9 -- Chart
1974 11 26 06 15.6 130.2 940 0 9 -- Chart
1974 11 26 12 15.7 129.0 940 0 9 -- Chart
1974 11 26 18 15.7 127.7 940 0 9 -- Chart
1974 11 27 00 15.7 126.4 940 0 9 -- Chart
1974 11 27 06 15.6 125.5 940 0 9 -- Chart
1974 11 27 12 15.6 124.3 940 0 9 -- Chart
1974 11 27 18 15.6 123.0 940 0 9 -- Chart
1974 11 28 00 15.6 121.3 980 0 9 -- Chart
1974 11 28 06 15.5 120.4 985 0 9 -- Chart
1974 11 28 12 15.3 119.5 985 0 9 -- Chart
1974 11 28 18 15.2 118.5 985 0 9 -- Chart
1974 11 29 00 15.5 117.4 980 0 9 -- Chart
1974 11 29 06 15.6 116.4 980 0 9 -- Chart
1974 11 29 12 15.8 115.3 980 0 9 -- Chart
1974 11 29 18 16.0 114.2 985 0 9 -- Chart
1974 11 30 00 16.3 113.4 985 0 9 -- Chart
1974 11 30 06 16.6 112.8 975 0 9 -- Chart
1974 11 30 12 17.0 112.3 970 0 9 -- Chart
1974 11 30 18 17.6 111.7 970 0 9 -- Chart
1974 12 1 00 18.4 111.4 970 0 9 -- Chart
1974 12 1 06 19.3 111.3 975 0 9 -- Chart
1974 12 1 12 20.1 111.4 990 0 9 -- Chart
1974 12 1 18 20.8 111.8 995 0 9 -- Chart
1974 12 2 00 21.5 112.4 1002 0 2 -- Chart
1974 12 2 06 22.4 113.0 1004 0 2 -- Chart
1974 12 2 12 23.1 113.5 1006 0 2 -- Chart
1974 12 2 18 23.5 114.5 1008 0 6 -- Chart
1974 12 3 00 23.7 115.9 1010 0 6 -- Chart
Japan Meteorological Agency Best Track Data | Correction Date : 1989-06-01
< Typhoon 197429 1974 Season Typhoon 197431 >

Help